Time;durP1;ratioP1;P1;durP2;ratioP2;P2;SDS_P1;SDS_P2;PMS_P1;PMS_P2;Temp;Humidity;BMP_temperature;BMP_pressure;BME280_temperature;BME280_humidity;BME280_pressure;Samples;Min_cycle;Max_cycle;Signal;HPM_P1;HPM_P2
2021/10/14 00:01:08;;;;;;;;;;;9.40;99.70;;;;;;5001111;28;19910;-67
2021/10/14 00:03:33;;;;;;;;;;;9.40;99.60;;;;;;5004856;28;19910;-66
2021/10/14 00:05:58;;;;;;;;;;;9.40;99.60;;;;;;4995132;28;20302;-67
2021/10/14 00:08:24;;;;;;;;;;;9.50;99.70;;;;;;5002002;28;19957;-66
2021/10/14 00:10:50;;;;;;;;;;;9.40;99.70;;;;;;5012538;28;19940;-67
2021/10/14 00:13:15;;;;;;;;;;;9.50;99.70;;;;;;4996515;28;19913;-66
2021/10/14 00:15:41;;;;;;;;;;;9.50;99.70;;;;;;4992904;28;19918;-66
2021/10/14 00:18:06;;;;;;;;;;;9.50;99.70;;;;;;4993663;28;20676;-67
2021/10/14 00:20:32;;;;;;;;;;;9.50;99.70;;;;;;4995414;28;20702;-67
2021/10/14 00:22:57;;;;;;;;;;;9.60;99.70;;;;;;4996164;28;19909;-67
2021/10/14 00:25:23;;;;;;;;;;;9.60;99.70;;;;;;5002105;28;19951;-66
2021/10/14 00:27:49;;;;;;;;;;;9.60;99.70;;;;;;4997211;28;21111;-67
2021/10/14 00:30:14;;;;;;;;;;;9.60;99.80;;;;;;4998294;28;19917;-65
2021/10/14 00:32:40;;;;;;;;;;;9.60;99.80;;;;;;5003104;28;20434;-67
2021/10/14 00:35:06;;;;;;;;;;;9.60;99.80;;;;;;4999025;28;19935;-67
2021/10/14 00:37:31;;;;;;;;;;;9.60;99.80;;;;;;5000943;28;19916;-67
2021/10/14 00:39:57;;;;;;;;;;;9.70;99.80;;;;;;4997392;28;19998;-67
2021/10/14 00:42:22;;;;;;;;;;;9.70;99.80;;;;;;5009666;28;19909;-67
2021/10/14 00:44:49;;;;;;;;;;;9.70;99.80;;;;;;5002631;28;19913;-65
2021/10/14 00:47:19;;;;;;;;;;;9.70;99.80;;;;;;4988682;28;19914;-66
2021/10/14 00:49:45;;;;;;;;;;;9.80;99.90;;;;;;5004481;28;19948;-66
2021/10/14 00:52:11;;;;;;;;;;;9.70;99.90;;;;;;4997873;28;20043;-66
2021/10/14 00:54:36;;;;;;;;;;;9.80;99.90;;;;;;4995670;28;19921;-68
2021/10/14 00:57:02;;;;;;;;;;;9.80;99.90;;;;;;4996329;28;20360;-67
2021/10/14 00:59:28;;;;;;;;;;;9.80;99.90;;;;;;4995599;28;19909;-65
2021/10/14 01:01:54;;;;;;;;;;;9.90;99.90;;;;;;4997396;28;19916;-66
2021/10/14 01:04:20;;;;;;;;;;;9.90;99.90;;;;;;4998477;28;19909;-66
2021/10/14 01:06:45;;;;;;;;;;;9.90;99.90;;;;;;4993055;28;19948;-67
2021/10/14 01:09:11;;;;;;;;;;;9.90;99.90;;;;;;5014111;28;20047;-66
2021/10/14 01:11:37;;;;;;;;;;;9.90;99.90;;;;;;4993743;28;19909;-65
2021/10/14 01:14:03;;;;;;;;;;;9.90;99.90;;;;;;4990906;28;19921;-66
2021/10/14 01:16:28;;;;;;;;;;;10.00;99.90;;;;;;4996586;28;19910;-66
2021/10/14 01:18:55;;;;;;;;;;;10.00;99.90;;;;;;4997684;28;19980;-65
2021/10/14 01:21:20;;;;;;;;;;;10.00;99.90;;;;;;4998099;28;20642;-67
2021/10/14 01:23:46;;;;;;;;;;;10.00;99.90;;;;;;5003319;28;19951;-67
2021/10/14 01:26:11;;;;;;;;;;;10.00;99.90;;;;;;5002379;28;19909;-64
2021/10/14 01:28:38;;;;;;;;;;;10.10;99.90;;;;;;5002046;28;19969;-67
2021/10/14 01:31:03;;;;;;;;;;;10.10;99.90;;;;;;4993270;28;19909;-67
2021/10/14 01:33:30;;;;;;;;;;;10.10;99.90;;;;;;5003112;28;19916;-67
2021/10/14 01:35:56;;;;;;;;;;;10.10;99.90;;;;;;4995883;28;20371;-67
2021/10/14 01:38:21;;;;;;;;;;;10.10;99.90;;;;;;4995743;28;19913;-67
2021/10/14 01:40:47;;;;;;;;;;;10.10;99.90;;;;;;4991996;28;19914;-67
2021/10/14 01:43:13;;;;;;;;;;;10.10;99.90;;;;;;5004726;28;20008;-66
2021/10/14 01:45:39;;;;;;;;;;;10.20;99.90;;;;;;4997880;28;19913;-65
2021/10/14 01:48:05;;;;;;;;;;;10.20;99.90;;;;;;5003086;28;19987;-66
2021/10/14 01:50:30;;;;;;;;;;;10.20;99.90;;;;;;4994842;28;19955;-67
2021/10/14 01:52:56;;;;;;;;;;;10.30;99.90;;;;;;4993668;28;19913;-65
2021/10/14 01:55:21;;;;;;;;;;;10.30;99.90;;;;;;4994637;28;19913;-66
2021/10/14 01:57:47;;;;;;;;;;;10.30;99.90;;;;;;4998511;28;19909;-65
2021/10/14 02:00:12;;;;;;;;;;;10.30;99.90;;;;;;4994392;28;19985;-66
2021/10/14 02:02:38;;;;;;;;;;;10.30;99.90;;;;;;4989516;28;20755;-66
2021/10/14 02:05:04;;;;;;;;;;;10.30;99.90;;;;;;5008918;28;19956;-67
2021/10/14 02:07:29;;;;;;;;;;;10.40;99.90;;;;;;5001540;28;20317;-68
2021/10/14 02:09:55;;;;;;;;;;;10.40;99.90;;;;;;4992931;28;19995;-66
2021/10/14 02:12:20;;;;;;;;;;;10.40;99.90;;;;;;4997452;28;20417;-67
2021/10/14 02:14:46;;;;;;;;;;;10.40;99.90;;;;;;4998595;28;19947;-66
2021/10/14 02:17:11;;;;;;;;;;;10.40;99.90;;;;;;5001890;28;19972;-65
2021/10/14 02:19:37;;;;;;;;;;;10.40;99.90;;;;;;4997565;28;20544;-67
2021/10/14 02:22:02;;;;;;;;;;;10.40;99.90;;;;;;4997457;28;19948;-68
2021/10/14 02:24:28;;;;;;;;;;;10.40;99.90;;;;;;4994770;28;19948;-65
2021/10/14 02:26:53;;;;;;;;;;;10.50;99.90;;;;;;4989161;28;19989;-67
2021/10/14 02:29:19;;;;;;;;;;;10.50;99.90;;;;;;4980205;28;19944;-67
2021/10/14 02:31:44;;;;;;;;;;;10.50;99.90;;;;;;4996735;28;19920;-66
2021/10/14 02:34:10;;;;;;;;;;;10.50;99.90;;;;;;5000673;28;19967;-67
2021/10/14 02:36:35;;;;;;;;;;;10.50;99.90;;;;;;4999974;28;20809;-67
2021/10/14 02:39:01;;;;;;;;;;;10.50;99.90;;;;;;4991334;28;19921;-66
2021/10/14 02:41:26;;;;;;;;;;;10.50;99.90;;;;;;4993813;28;19909;-66
2021/10/14 02:43:52;;;;;;;;;;;10.60;99.90;;;;;;5006222;28;20013;-68
2021/10/14 02:46:17;;;;;;;;;;;10.60;99.90;;;;;;5009486;28;20264;-66
2021/10/14 02:48:43;;;;;;;;;;;10.60;99.90;;;;;;5005863;28;20000;-67
2021/10/14 02:51:08;;;;;;;;;;;10.60;99.90;;;;;;5002783;28;20731;-68
2021/10/14 02:53:34;;;;;;;;;;;10.60;99.90;;;;;;5005933;28;19917;-65
2021/10/14 02:55:59;;;;;;;;;;;10.60;99.90;;;;;;4998211;28;19921;-68
2021/10/14 02:58:25;;;;;;;;;;;10.60;99.90;;;;;;5000582;28;20507;-67
2021/10/14 03:00:50;;;;;;;;;;;10.60;99.90;;;;;;4995201;28;20005;-65
2021/10/14 03:03:16;;;;;;;;;;;10.60;99.90;;;;;;4998617;28;19910;-67
2021/10/14 03:05:41;;;;;;;;;;;10.70;99.90;;;;;;5006711;28;19917;-67
2021/10/14 03:08:07;;;;;;;;;;;10.60;99.90;;;;;;4994358;28;19924;-67
2021/10/14 03:10:32;;;;;;;;;;;10.70;99.90;;;;;;5006477;28;19948;-65
2021/10/14 03:12:58;;;;;;;;;;;10.70;99.90;;;;;;4998867;28;19934;-67
2021/10/14 03:15:23;;;;;;;;;;;10.70;99.90;;;;;;4997335;28;19918;-67
2021/10/14 03:17:49;;;;;;;;;;;10.70;99.90;;;;;;4994300;28;19909;-68
2021/10/14 03:20:14;;;;;;;;;;;10.70;99.90;;;;;;5000224;28;19958;-67
2021/10/14 03:22:40;;;;;;;;;;;10.70;99.90;;;;;;5000856;28;20383;-67
2021/10/14 03:25:07;;;;;;;;;;;10.80;99.90;;;;;;5004979;28;19914;-67
2021/10/14 03:27:32;;;;;;;;;;;10.80;99.90;;;;;;4994471;28;19914;-66
2021/10/14 03:29:58;;;;;;;;;;;10.80;99.90;;;;;;4992563;28;19913;-67
2021/10/14 03:32:23;;;;;;;;;;;10.80;99.90;;;;;;4996970;28;19914;-68
2021/10/14 03:34:49;;;;;;;;;;;10.80;99.90;;;;;;5000692;28;20315;-67
2021/10/14 03:37:15;;;;;;;;;;;10.90;99.90;;;;;;5008398;28;19913;-67
2021/10/14 03:39:41;;;;;;;;;;;10.90;99.90;;;;;;4999064;28;20570;-67
2021/10/14 03:42:06;;;;;;;;;;;10.90;99.90;;;;;;4995962;28;19935;-67
2021/10/14 03:44:32;;;;;;;;;;;10.90;99.90;;;;;;4996283;28;19918;-65
2021/10/14 03:46:57;;;;;;;;;;;10.90;99.90;;;;;;5002030;28;19979;-66
2021/10/14 03:49:22;;;;;;;;;;;11.00;99.90;;;;;;4998203;28;19905;-67
2021/10/14 03:51:48;;;;;;;;;;;11.00;99.90;;;;;;4991462;28;19917;-66
2021/10/14 03:54:13;;;;;;;;;;;11.00;99.90;;;;;;5000631;28;19978;-66
2021/10/14 03:56:39;;;;;;;;;;;11.00;99.90;;;;;;5001629;28;19909;-67
2021/10/14 03:59:04;;;;;;;;;;;11.00;99.90;;;;;;4997347;28;19910;-66
2021/10/14 04:01:30;;;;;;;;;;;11.00;99.90;;;;;;4999610;28;19910;-65
2021/10/14 04:03:55;;;;;;;;;;;11.00;99.90;;;;;;4996134;28;19917;-66
2021/10/14 04:06:21;;;;;;;;;;;11.10;99.90;;;;;;4996787;28;20454;-66
2021/10/14 04:08:46;;;;;;;;;;;11.10;99.90;;;;;;4990674;28;19912;-67
2021/10/14 04:11:12;;;;;;;;;;;11.10;99.90;;;;;;5001082;28;20269;-67
2021/10/14 04:13:37;;;;;;;;;;;11.10;99.90;;;;;;4998728;28;19984;-67
2021/10/14 04:16:03;;;;;;;;;;;11.10;99.90;;;;;;4997343;28;19909;-67
2021/10/14 04:18:28;;;;;;;;;;;11.10;99.90;;;;;;4987871;28;19914;-65
2021/10/14 04:20:54;;;;;;;;;;;11.10;99.90;;;;;;4993260;28;19921;-64
2021/10/14 04:23:20;;;;;;;;;;;11.10;99.90;;;;;;4997437;28;20408;-65
2021/10/14 04:25:46;;;;;;;;;;;11.20;99.90;;;;;;4995180;28;19927;-65
2021/10/14 04:28:12;;;;;;;;;;;11.20;99.90;;;;;;4999570;28;20547;-65
2021/10/14 04:30:38;;;;;;;;;;;11.20;99.90;;;;;;4999790;28;19906;-65
2021/10/14 04:33:03;;;;;;;;;;;11.20;99.90;;;;;;4988658;28;19909;-64
2021/10/14 04:35:29;;;;;;;;;;;11.20;99.90;;;;;;4996084;28;19913;-64
2021/10/14 04:37:54;;;;;;;;;;;11.30;99.90;;;;;;4993607;28;19917;-64
2021/10/14 04:40:20;;;;;;;;;;;11.30;99.90;;;;;;4995622;28;20268;-64
2021/10/14 04:42:45;;;;;;;;;;;11.30;99.90;;;;;;5004467;28;19909;-65
2021/10/14 04:45:11;;;;;;;;;;;11.30;99.90;;;;;;5000467;28;19964;-65
2021/10/14 04:47:37;;;;;;;;;;;11.30;99.90;;;;;;4997785;28;20395;-66
2021/10/14 04:50:04;;;;;;;;;;;11.30;99.90;;;;;;4996072;28;19913;-65
2021/10/14 04:52:30;;;;;;;;;;;11.30;99.90;;;;;;4998199;28;19917;-64
2021/10/14 04:54:55;;;;;;;;;;;11.30;99.90;;;;;;5004198;28;19913;-65
2021/10/14 04:57:21;;;;;;;;;;;11.40;99.90;;;;;;4998999;28;19917;-65
2021/10/14 04:59:46;;;;;;;;;;;11.40;99.90;;;;;;4998222;28;19910;-65
2021/10/14 05:02:12;;;;;;;;;;;11.40;99.90;;;;;;4995703;28;19925;-65
2021/10/14 05:04:37;;;;;;;;;;;11.40;99.90;;;;;;5008666;28;19913;-64
2021/10/14 05:07:03;;;;;;;;;;;11.40;99.90;;;;;;5003787;28;19913;-64
2021/10/14 05:09:28;;;;;;;;;;;11.40;99.90;;;;;;5001068;28;20431;-65
2021/10/14 05:11:53;;;;;;;;;;;11.50;99.90;;;;;;5003773;28;19917;-64
2021/10/14 05:14:19;;;;;;;;;;;11.40;99.90;;;;;;4995816;28;19913;-64
2021/10/14 05:16:44;;;;;;;;;;;11.50;99.90;;;;;;4999823;28;19917;-64
2021/10/14 05:19:10;;;;;;;;;;;11.50;99.90;;;;;;4998498;28;19921;-65
2021/10/14 05:21:35;;;;;;;;;;;11.40;99.90;;;;;;4996334;28;19916;-65
2021/10/14 05:24:02;;;;;;;;;;;11.50;99.90;;;;;;4995936;28;20672;-65
2021/10/14 05:26:27;;;;;;;;;;;11.50;99.90;;;;;;4997316;28;20388;-64
2021/10/14 05:28:53;;;;;;;;;;;11.50;99.90;;;;;;4997550;28;19995;-65
2021/10/14 05:31:19;;;;;;;;;;;11.50;99.90;;;;;;4995763;28;19910;-64
2021/10/14 05:33:44;;;;;;;;;;;11.50;99.90;;;;;;5002300;28;20465;-64
2021/10/14 05:36:10;;;;;;;;;;;11.50;99.90;;;;;;5003579;28;19913;-65
2021/10/14 05:38:35;;;;;;;;;;;11.50;99.90;;;;;;4998997;28;20355;-64
2021/10/14 05:41:01;;;;;;;;;;;11.50;99.90;;;;;;4997078;28;19909;-65
2021/10/14 05:43:26;;;;;;;;;;;11.50;99.90;;;;;;5002726;28;20291;-65
2021/10/14 05:45:53;;;;;;;;;;;11.50;99.90;;;;;;4996474;28;19917;-64
2021/10/14 05:48:18;;;;;;;;;;;11.50;99.90;;;;;;4997847;28;19948;-64
2021/10/14 05:50:44;;;;;;;;;;;11.50;99.90;;;;;;4995825;28;19918;-65
2021/10/14 05:53:09;;;;;;;;;;;11.50;99.90;;;;;;4996091;28;20393;-65
2021/10/14 05:55:35;;;;;;;;;;;11.50;99.90;;;;;;5005420;28;20368;-65
2021/10/14 05:58:01;;;;;;;;;;;11.50;99.90;;;;;;5008338;28;19914;-65
2021/10/14 06:00:26;;;;;;;;;;;11.50;99.90;;;;;;5001433;28;19932;-65
2021/10/14 06:02:52;;;;;;;;;;;11.50;99.90;;;;;;4997200;28;19917;-64
2021/10/14 06:05:17;;;;;;;;;;;11.50;99.90;;;;;;5000412;28;20319;-64
2021/10/14 06:07:43;;;;;;;;;;;11.50;99.90;;;;;;5001688;28;19976;-65
2021/10/14 06:10:08;;;;;;;;;;;11.50;99.90;;;;;;5001567;28;19913;-64
2021/10/14 06:12:34;;;;;;;;;;;11.50;99.90;;;;;;5003877;28;19910;-65
2021/10/14 06:15:00;;;;;;;;;;;11.50;99.90;;;;;;4999256;28;19913;-65
2021/10/14 06:17:25;;;;;;;;;;;11.50;99.90;;;;;;4999415;28;20073;-66
2021/10/14 06:19:51;;;;;;;;;;;11.50;99.80;;;;;;4997219;28;19909;-65
2021/10/14 06:22:16;;;;;;;;;;;11.50;99.70;;;;;;5004332;28;20057;-66
2021/10/14 06:24:42;;;;;;;;;;;11.50;99.70;;;;;;5001598;28;20564;-65
2021/10/14 06:27:07;;;;;;;;;;;11.50;99.70;;;;;;5001242;28;19917;-65
2021/10/14 06:29:33;;;;;;;;;;;11.50;99.60;;;;;;5007554;28;19916;-65
2021/10/14 06:31:58;;;;;;;;;;;11.50;99.50;;;;;;5001572;28;20002;-65
2021/10/14 06:34:24;;;;;;;;;;;11.50;99.50;;;;;;5004080;28;19917;-66
2021/10/14 06:36:49;;;;;;;;;;;11.50;99.40;;;;;;5004528;28;19940;-65
2021/10/14 06:39:15;;;;;;;;;;;11.60;99.50;;;;;;5001376;28;19913;-65
2021/10/14 06:41:40;;;;;;;;;;;11.50;99.40;;;;;;5012378;28;19910;-69
2021/10/14 06:44:07;;;;;;;;;;;11.60;99.40;;;;;;5008222;28;20166;-67
2021/10/14 06:46:36;;;;;;;;;;;11.50;99.40;;;;;;5006942;28;19963;-68
2021/10/14 06:49:02;;;;;;;;;;;11.60;99.40;;;;;;5000339;28;19916;-67
2021/10/14 06:51:28;;;;;;;;;;;11.60;99.40;;;;;;5001695;28;19914;-67
2021/10/14 06:53:53;;;;;;;;;;;11.60;99.30;;;;;;5000410;28;19910;-68
2021/10/14 06:56:19;;;;;;;;;;;11.60;99.30;;;;;;5006903;28;20360;-68
2021/10/14 06:58:44;;;;;;;;;;;11.60;99.30;;;;;;5011263;28;20514;-68
2021/10/14 07:01:10;;;;;;;;;;;11.60;99.20;;;;;;5003060;28;19920;-67
2021/10/14 07:03:36;;;;;;;;;;;11.60;99.20;;;;;;5011684;28;19925;-67
2021/10/14 07:06:02;;;;;;;;;;;11.60;99.20;;;;;;5005133;28;20175;-67
2021/10/14 07:08:27;;;;;;;;;;;11.60;99.20;;;;;;5009750;28;20076;-67
2021/10/14 07:10:53;;;;;;;;;;;11.70;99.20;;;;;;5005127;28;20040;-67
2021/10/14 07:13:19;;;;;;;;;;;11.70;99.20;;;;;;5000865;28;19909;-67
2021/10/14 07:15:45;;;;;;;;;;;11.70;99.20;;;;;;5005713;28;20327;-67
2021/10/14 07:18:10;;;;;;;;;;;11.70;99.20;;;;;;5009226;28;19910;-67
2021/10/14 07:20:36;;;;;;;;;;;11.70;99.20;;;;;;5006767;28;19975;-67
2021/10/14 07:23:11;;;;;;;;;;;11.70;99.20;;;;;;4996824;28;19952;-67
2021/10/14 07:25:41;;;;;;;;;;;11.80;99.20;;;;;;5001812;28;20339;-67
2021/10/14 07:28:07;;;;;;;;;;;11.80;99.20;;;;;;5006378;28;20297;-67
2021/10/14 07:30:33;;;;;;;;;;;11.80;99.20;;;;;;5005605;28;19916;-67
2021/10/14 07:33:03;;;;;;;;;;;11.80;99.10;;;;;;5003427;28;20000;-67
2021/10/14 07:35:32;;;;;;;;;;;11.70;99.10;;;;;;5002042;28;20404;-67
2021/10/14 07:37:58;;;;;;;;;;;11.80;99.00;;;;;;5006684;28;20287;-67
2021/10/14 07:40:24;;;;;;;;;;;11.80;99.00;;;;;;5006784;28;20455;-67
2021/10/14 07:42:49;;;;;;;;;;;11.90;98.90;;;;;;5004661;28;20000;-67
2021/10/14 07:45:15;;;;;;;;;;;12.00;98.70;;;;;;5001749;28;19909;-68
2021/10/14 07:47:40;;;;;;;;;;;12.10;98.50;;;;;;4998723;28;19984;-67
2021/10/14 07:50:06;;;;;;;;;;;12.00;98.20;;;;;;5004453;28;19921;-68
2021/10/14 07:52:31;;;;;;;;;;;12.10;98.10;;;;;;5001342;28;20359;-67
2021/10/14 07:54:57;;;;;;;;;;;12.10;97.80;;;;;;5001082;28;20728;-67
2021/10/14 07:57:22;;;;;;;;;;;12.20;97.90;;;;;;5000895;28;19917;-66
2021/10/14 07:59:48;;;;;;;;;;;12.20;97.70;;;;;;5000331;28;19913;-67
2021/10/14 08:02:13;;;;;;;;;;;12.30;97.70;;;;;;4997323;28;19909;-67
2021/10/14 08:04:39;;;;;;;;;;;12.30;97.70;;;;;;5002483;28;19956;-66
2021/10/14 08:07:05;;;;;;;;;;;12.30;97.70;;;;;;5004437;28;19925;-67
2021/10/14 08:09:30;;;;;;;;;;;12.40;97.40;;;;;;5002281;28;20086;-67
2021/10/14 08:11:56;;;;;;;;;;;12.50;97.50;;;;;;5004246;28;19909;-67
2021/10/14 08:14:21;;;;;;;;;;;12.50;97.20;;;;;;5001907;28;19917;-66
2021/10/14 08:16:46;;;;;;;;;;;12.50;96.90;;;;;;5002313;28;19971;-67
2021/10/14 08:19:12;;;;;;;;;;;12.60;96.80;;;;;;5000638;28;20361;-66
2021/10/14 08:21:37;;;;;;;;;;;12.60;96.80;;;;;;4997555;28;19936;-66
2021/10/14 08:24:03;;;;;;;;;;;12.80;96.80;;;;;;4999172;28;19909;-66
2021/10/14 08:26:28;;;;;;;;;;;12.70;96.30;;;;;;5000354;28;19910;-66
2021/10/14 08:28:54;;;;;;;;;;;12.70;95.90;;;;;;5000325;28;19947;-67
2021/10/14 08:31:21;;;;;;;;;;;12.70;96.00;;;;;;4999042;28;19910;-67
2021/10/14 08:33:47;;;;;;;;;;;12.70;96.00;;;;;;5005391;28;19992;-64
2021/10/14 08:36:13;;;;;;;;;;;12.70;96.10;;;;;;5001423;28;20197;-65
2021/10/14 08:38:38;;;;;;;;;;;12.70;96.00;;;;;;4994642;28;20380;-65
2021/10/14 08:41:04;;;;;;;;;;;12.80;95.80;;;;;;4999576;28;19959;-65
2021/10/14 08:43:31;;;;;;;;;;;12.70;95.50;;;;;;4998092;28;19960;-64
2021/10/14 08:45:57;;;;;;;;;;;12.70;95.40;;;;;;4996675;28;19914;-65
2021/10/14 08:48:24;;;;;;;;;;;12.70;95.50;;;;;;5001548;28;19917;-65
2021/10/14 08:50:49;;;;;;;;;;;12.80;95.80;;;;;;4992801;28;19960;-65
2021/10/14 08:53:15;;;;;;;;;;;13.00;95.40;;;;;;4998601;28;20335;-65
2021/10/14 08:55:40;;;;;;;;;;;13.10;95.20;;;;;;4993678;28;19965;-65
2021/10/14 08:58:07;;;;;;;;;;;13.20;95.20;;;;;;4998831;28;19918;-65
2021/10/14 09:00:35;;;;;;;;;;;13.10;95.00;;;;;;5002328;28;20280;-65
2021/10/14 09:03:00;;;;;;;;;;;12.90;95.00;;;;;;5001891;28;19975;-65
2021/10/14 09:05:29;;;;;;;;;;;12.80;95.20;;;;;;4993593;28;19949;-65
2021/10/14 09:07:54;;;;;;;;;;;12.80;95.60;;;;;;5003219;28;19913;-65
2021/10/14 09:10:20;;;;;;;;;;;12.80;95.80;;;;;;5010109;28;19964;-65
2021/10/14 09:12:46;;;;;;;;;;;12.70;95.60;;;;;;5000155;28;20024;-64
2021/10/14 09:15:13;;;;;;;;;;;12.70;95.80;;;;;;4998929;28;19913;-65
2021/10/14 09:17:42;;;;;;;;;;;12.70;95.80;;;;;;4993632;28;19917;-65
2021/10/14 09:20:23;;;;;;;;;;;12.70;96.00;;;;;;4999476;28;20559;-65
2021/10/14 09:22:53;;;;;;;;;;;12.70;95.90;;;;;;4987906;28;19909;-64
2021/10/14 09:25:37;;;;;;;;;;;12.70;95.90;;;;;;4998605;28;21574;-65
2021/10/14 09:28:07;;;;;;;;;;;12.60;96.50;;;;;;4996565;28;20283;-63
2021/10/14 09:30:42;;;;;;;;;;;12.60;96.30;;;;;;4998012;28;19917;-63
2021/10/14 09:33:07;;;;;;;;;;;12.60;96.40;;;;;;4995184;28;20300;-64
2021/10/14 09:35:33;;;;;;;;;;;12.60;96.00;;;;;;4997261;28;19923;-63
2021/10/14 09:37:58;;;;;;;;;;;12.60;96.30;;;;;;4996900;28;19921;-63
2021/10/14 09:40:26;;;;;;;;;;;12.70;96.40;;;;;;5000993;28;19913;-65
2021/10/14 09:43:02;;;;;;;;;;;12.80;96.20;;;;;;4997073;28;20356;-65
2021/10/14 09:45:33;;;;;;;;;;;12.80;96.00;;;;;;4999924;28;19953;-64
2021/10/14 09:48:02;;;;;;;;;;;13.00;95.90;;;;;;4992158;28;19914;-64
2021/10/14 09:50:28;;;;;;;;;;;13.00;95.20;;;;;;4985074;28;20012;-64
2021/10/14 09:52:54;;;;;;;;;;;13.00;95.30;;;;;;4995224;28;20035;-64
2021/10/14 09:55:20;;;;;;;;;;;13.00;95.50;;;;;;4992665;28;19921;-65
2021/10/14 09:57:45;;;;;;;;;;;13.10;95.60;;;;;;4995349;28;20548;-64
2021/10/14 10:00:11;;;;;;;;;;;13.10;95.20;;;;;;4991454;28;20399;-64
2021/10/14 10:02:38;;;;;;;;;;;13.10;95.20;;;;;;5006614;28;20004;-64
2021/10/14 10:05:04;;;;;;;;;;;13.10;94.60;;;;;;4994313;28;20332;-64
2021/10/14 10:07:29;;;;;;;;;;;13.10;94.20;;;;;;4995674;28;19952;-64
2021/10/14 10:09:55;;;;;;;;;;;13.10;94.60;;;;;;4996092;28;19914;-64
2021/10/14 10:12:20;;;;;;;;;;;13.00;93.90;;;;;;4996102;28;21887;-64
2021/10/14 10:14:49;;;;;;;;;;;13.10;94.30;;;;;;4994973;28;19925;-64
2021/10/14 10:17:33;;;;;;;;;;;13.10;93.90;;;;;;4992443;28;20288;-66
2021/10/14 10:19:59;;;;;;;;;;;13.00;94.30;;;;;;4997538;28;19952;-66
2021/10/14 10:22:49;;;;;;;;;;;13.10;94.40;;;;;;5000621;28;19940;-66
2021/10/14 10:25:16;;;;;;;;;;;13.10;94.50;;;;;;4989870;28;19917;-66
2021/10/14 10:27:41;;;;;;;;;;;13.20;94.40;;;;;;4998112;28;20332;-66
2021/10/14 10:30:07;;;;;;;;;;;13.30;94.30;;;;;;4999929;28;19909;-66
2021/10/14 10:32:41;;;;;;;;;;;13.30;93.30;;;;;;4989906;28;19914;-66
2021/10/14 10:35:07;;;;;;;;;;;13.50;93.20;;;;;;4999393;28;19922;-66
2021/10/14 10:37:38;;;;;;;;;;;13.50;92.60;;;;;;4990711;28;19909;-66
2021/10/14 10:40:06;;;;;;;;;;;13.50;92.60;;;;;;4995724;28;19975;-66
2021/10/14 10:42:38;;;;;;;;;;;13.50;92.20;;;;;;4999030;28;19913;-65
2021/10/14 10:45:22;;;;;;;;;;;13.40;92.50;;;;;;4991606;28;19909;-66
2021/10/14 10:47:57;;;;;;;;;;;13.50;93.20;;;;;;4994235;28;19921;-66
2021/10/14 10:50:46;;;;;;;;;;;13.40;93.20;;;;;;4996152;28;19909;-65
2021/10/14 10:53:14;;;;;;;;;;;13.40;93.50;;;;;;4990182;28;20007;-66
2021/10/14 10:55:39;;;;;;;;;;;13.60;92.90;;;;;;4992657;28;20005;-66
2021/10/14 10:58:07;;;;;;;;;;;13.50;92.00;;;;;;4998916;28;20035;-66
2021/10/14 11:00:33;;;;;;;;;;;13.60;92.10;;;;;;4996743;28;20529;-66
2021/10/14 11:03:08;;;;;;;;;;;13.60;91.60;;;;;;5004147;28;19917;-66
2021/10/14 11:05:54;;;;;;;;;;;13.60;91.50;;;;;;4997811;28;20404;-66
2021/10/14 11:08:25;;;;;;;;;;;13.60;91.40;;;;;;5006250;28;19933;-66
2021/10/14 11:11:03;;;;;;;;;;;13.70;90.70;;;;;;5005653;28;20265;-66
2021/10/14 11:13:30;;;;;;;;;;;13.70;90.60;;;;;;5000523;28;20012;-65
2021/10/14 11:15:56;;;;;;;;;;;13.70;90.30;;;;;;5003304;28;19924;-66
2021/10/14 11:18:23;;;;;;;;;;;13.80;90.60;;;;;;5010617;28;20333;-66
2021/10/14 11:20:59;;;;;;;;;;;13.90;90.80;;;;;;5006174;28;19928;-65
2021/10/14 11:23:25;;;;;;;;;;;13.80;90.50;;;;;;4999722;28;20351;-66
2021/10/14 11:26:12;;;;;;;;;;;13.80;89.80;;;;;;5000301;28;19920;-65
2021/10/14 11:28:50;;;;;;;;;;;13.80;90.40;;;;;;4988684;28;19913;-66
2021/10/14 11:31:29;;;;;;;;;;;13.90;90.30;;;;;;5003425;28;20275;-65
2021/10/14 11:33:55;;;;;;;;;;;14.20;89.20;;;;;;5005057;28;19958;-66
2021/10/14 11:36:24;;;;;;;;;;;14.30;88.30;;;;;;5000947;28;19979;-65
2021/10/14 11:39:00;;;;;;;;;;;14.20;87.90;;;;;;5003869;28;19929;-65
2021/10/14 11:41:26;;;;;;;;;;;14.00;88.60;;;;;;4996678;28;19917;-64
2021/10/14 11:43:55;;;;;;;;;;;13.80;89.90;;;;;;5002008;28;19964;-66
2021/10/14 11:46:25;;;;;;;;;;;13.20;92.60;;;;;;5001483;28;19917;-65
2021/10/14 11:48:54;;;;;;;;;;;12.80;93.00;;;;;;4998557;28;19939;-65
2021/10/14 11:51:20;;;;;;;;;;;12.70;93.50;;;;;;5005598;28;19913;-65
2021/10/14 11:53:54;;;;;;;;;;;12.80;93.40;;;;;;5003884;28;19913;-65
2021/10/14 11:56:19;;;;;;;;;;;13.00;93.90;;;;;;4997754;28;19948;-65
2021/10/14 11:58:45;;;;;;;;;;;13.10;93.60;;;;;;5001482;28;20381;-67
2021/10/14 12:01:12;;;;;;;;;;;13.30;93.70;;;;;;5001475;28;19917;-66
2021/10/14 12:03:38;;;;;;;;;;;13.50;92.20;;;;;;5002903;28;19916;-66
2021/10/14 12:06:04;;;;;;;;;;;13.50;92.30;;;;;;4995421;28;19910;-65
2021/10/14 12:08:30;;;;;;;;;;;13.70;92.20;;;;;;4999625;28;19949;-66
2021/10/14 12:10:58;;;;;;;;;;;13.60;92.70;;;;;;4998511;28;20383;-66
2021/10/14 12:13:29;;;;;;;;;;;13.50;92.90;;;;;;5001975;28;19909;-65
2021/10/14 12:16:07;;;;;;;;;;;13.40;92.60;;;;;;4995959;28;19928;-65
2021/10/14 12:18:32;;;;;;;;;;;13.30;92.60;;;;;;4996611;28;20496;-65
2021/10/14 12:20:58;;;;;;;;;;;13.30;93.00;;;;;;4995221;28;19921;-65
2021/10/14 12:23:28;;;;;;;;;;;13.10;92.90;;;;;;4995322;28;20016;-65
2021/10/14 12:26:08;;;;;;;;;;;13.10;92.80;;;;;;4994453;28;19910;-64
2021/10/14 12:28:33;;;;;;;;;;;13.10;93.10;;;;;;4997616;28;19956;-64
2021/10/14 12:31:09;;;;;;;;;;;13.10;92.60;;;;;;4993532;28;20434;-64
2021/10/14 12:33:35;;;;;;;;;;;13.00;92.20;;;;;;5000877;28;19914;-65
2021/10/14 12:36:01;;;;;;;;;;;13.00;92.30;;;;;;4979476;28;19914;-64
2021/10/14 12:38:40;;;;;;;;;;;13.10;92.90;;;;;;5007425;28;19921;-64
2021/10/14 12:41:18;;;;;;;;;;;13.00;92.40;;;;;;5010002;28;20299;-64
2021/10/14 12:43:48;;;;;;;;;;;13.10;91.70;;;;;;5001382;28;19909;-64
2021/10/14 12:48:57;;;;;;;;;;;13.10;90.90;;;;;;5007795;28;19913;-65
2021/10/14 12:51:26;;;;;;;;;;;13.10;91.80;;;;;;4987622;28;20433;-65
2021/10/14 12:53:55;;;;;;;;;;;13.10;91.20;;;;;;4997222;28;19909;-64
2021/10/14 12:56:31;;;;;;;;;;;13.00;90.70;;;;;;5003648;28;19913;-63
2021/10/14 12:59:03;;;;;;;;;;;13.00;89.90;;;;;;4997609;28;19909;-64
2021/10/14 13:01:28;;;;;;;;;;;13.10;90.30;;;;;;4996343;28;20279;-65
2021/10/14 13:03:54;;;;;;;;;;;13.10;89.80;;;;;;5010891;28;19935;-65
2021/10/14 13:06:19;;;;;;;;;;;13.00;89.80;;;;;;5003101;28;19956;-65
2021/10/14 13:08:46;;;;;;;;;;;13.00;90.00;;;;;;5002230;28;19909;-65
2021/10/14 13:11:13;;;;;;;;;;;13.00;89.80;;;;;;4999958;28;19909;-65
2021/10/14 13:13:40;;;;;;;;;;;13.00;90.20;;;;;;5002681;28;19909;-66
2021/10/14 13:16:06;;;;;;;;;;;13.00;90.00;;;;;;4997211;28;20582;-65
2021/10/14 13:18:32;;;;;;;;;;;12.90;89.80;;;;;;5002886;28;20057;-65
2021/10/14 13:20:59;;;;;;;;;;;12.90;89.90;;;;;;4996070;28;19917;-64
2021/10/14 13:23:25;;;;;;;;;;;13.00;89.90;;;;;;4998356;28;19917;-65
2021/10/14 13:25:53;;;;;;;;;;;13.00;89.90;;;;;;5001551;28;20468;-66
2021/10/14 13:28:19;;;;;;;;;;;13.00;89.70;;;;;;5003482;28;19909;-65
2021/10/14 13:30:45;;;;;;;;;;;13.10;89.30;;;;;;5001530;28;19913;-64
2021/10/14 13:33:11;;;;;;;;;;;13.10;89.60;;;;;;4988740;28;19913;-65
2021/10/14 13:35:38;;;;;;;;;;;13.10;89.40;;;;;;5003280;28;19920;-64
2021/10/14 13:38:04;;;;;;;;;;;13.10;89.60;;;;;;5002081;28;20343;-66
2021/10/14 13:40:30;;;;;;;;;;;13.20;89.10;;;;;;5003939;28;19924;-66
2021/10/14 13:42:56;;;;;;;;;;;13.20;89.10;;;;;;4999215;28;20001;-65
2021/10/14 13:45:22;;;;;;;;;;;13.20;88.10;;;;;;5001256;28;20498;-65
2021/10/14 13:47:48;;;;;;;;;;;13.20;88.20;;;;;;5001597;28;20607;-65
2021/10/14 13:50:13;;;;;;;;;;;13.20;87.20;;;;;;5002030;28;19913;-64
2021/10/14 13:52:39;;;;;;;;;;;13.40;87.40;;;;;;5002070;28;19917;-65
2021/10/14 13:55:05;;;;;;;;;;;13.50;86.40;;;;;;4993455;28;19921;-67
2021/10/14 13:57:32;;;;;;;;;;;13.50;86.20;;;;;;5002273;28;19905;-66
2021/10/14 13:59:58;;;;;;;;;;;13.50;86.60;;;;;;4997340;28;20505;-66
2021/10/14 14:02:24;;;;;;;;;;;13.50;86.40;;;;;;5002728;28;20380;-66
2021/10/14 14:04:49;;;;;;;;;;;13.50;87.00;;;;;;5001272;28;19943;-66
2021/10/14 14:07:15;;;;;;;;;;;13.40;87.00;;;;;;5001762;28;19914;-65
2021/10/14 14:09:40;;;;;;;;;;;13.40;87.30;;;;;;5002440;28;19955;-66
2021/10/14 14:12:06;;;;;;;;;;;13.40;87.20;;;;;;5004371;28;19917;-65
2021/10/14 14:14:31;;;;;;;;;;;13.40;87.10;;;;;;4997115;28;20379;-65
2021/10/14 14:16:57;;;;;;;;;;;13.30;87.30;;;;;;4999248;28;20278;-65
2021/10/14 14:19:22;;;;;;;;;;;13.30;87.40;;;;;;5000503;28;20012;-65